createdAt,value
2022-12-01T00:00:19.519Z,76.97
2022-12-01T00:03:07.089Z,77.05
2022-12-01T00:05:34.282Z,77.10
2022-12-01T00:08:01.444Z,77.12
2022-12-01T00:10:29.087Z,77.24
2022-12-01T00:12:57.443Z,77.30
2022-12-01T00:15:25.093Z,77.49
2022-12-01T00:17:52.406Z,77.46
2022-12-01T00:20:20.011Z,77.47
2022-12-01T00:22:48.525Z,77.37
2022-12-01T00:25:16.950Z,77.44
2022-12-01T00:27:44.735Z,77.54
2022-12-01T00:30:14.800Z,77.67
2022-12-01T00:32:42.007Z,77.78
2022-12-01T00:35:11.216Z,77.83
2022-12-01T00:37:38.666Z,77.95
2022-12-01T00:40:08.226Z,78.13
2022-12-01T00:42:35.421Z,78.23
2022-12-01T00:45:04.225Z,78.26
2022-12-01T00:47:32.011Z,78.42
2022-12-01T00:49:59.123Z,78.42
2022-12-01T00:52:26.292Z,78.71
2022-12-01T00:54:53.444Z,78.59
2022-12-01T00:57:20.883Z,78.69
2022-12-01T00:59:49.927Z,78.68
2022-12-01T01:02:17.652Z,78.88
2022-12-01T01:04:45.716Z,78.86
2022-12-01T01:07:13.065Z,78.84
2022-12-01T01:09:40.353Z,79.10
2022-12-01T01:12:07.776Z,79.24
2022-12-01T01:14:35.304Z,79.17
2022-12-01T01:17:02.498Z,79.27
2022-12-01T01:19:29.741Z,79.40
2022-12-01T01:21:56.831Z,79.36
2022-12-01T01:24:23.872Z,79.43
2022-12-01T01:26:51.016Z,79.36
2022-12-01T01:29:18.166Z,79.58
2022-12-01T01:31:45.321Z,79.44
2022-12-01T01:34:12.640Z,79.30
2022-12-01T01:36:40.610Z,79.35
2022-12-01T01:39:08.308Z,79.28
2022-12-01T01:41:35.484Z,79.38
2022-12-01T01:44:04.849Z,79.39
2022-12-01T01:46:33.438Z,79.35
2022-12-01T01:49:03.776Z,79.46
2022-12-01T01:51:34.979Z,79.62
2022-12-01T01:54:07.352Z,79.87
2022-12-01T01:56:36.680Z,79.89
2022-12-01T01:59:04.724Z,79.86
2022-12-01T02:01:32.520Z,79.84
2022-12-01T02:04:01.380Z,79.90
2022-12-01T02:06:28.464Z,79.90
2022-12-01T02:08:56.398Z,80.01
2022-12-01T02:12:03.485Z,80.07
2022-12-01T02:14:47.156Z,80.18
2022-12-01T02:17:29.009Z,80.27
2022-12-01T02:20:21.839Z,80.40
2022-12-01T02:23:04.584Z,80.36
2022-12-01T02:25:46.921Z,80.48
2022-12-01T02:28:37.286Z,80.49
2022-12-01T02:31:12.669Z,80.71
2022-12-01T02:33:45.830Z,80.78
2022-12-01T02:36:18.887Z,80.72
2022-12-01T02:38:53.676Z,80.77
2022-12-01T02:41:29.695Z,81.00
2022-12-01T02:44:04.529Z,81.09
2022-12-01T02:46:35.693Z,81.10
2022-12-01T02:49:09.432Z,81.23
2022-12-01T02:51:39.062Z,81.36
2022-12-01T02:54:08.695Z,81.38
2022-12-01T02:56:35.872Z,81.40
2022-12-01T02:59:03.408Z,81.48
2022-12-01T03:01:42.734Z,81.48
2022-12-01T03:04:30.063Z,81.62
2022-12-01T03:07:00.018Z,81.69
2022-12-01T03:09:39.595Z,81.76
2022-12-01T03:12:16.666Z,81.83
2022-12-01T03:14:52.326Z,81.69
2022-12-01T03:17:26.268Z,81.54
2022-12-01T03:19:59.987Z,81.52
2022-12-01T03:22:33.496Z,81.55
2022-12-01T03:25:05.531Z,81.47
2022-12-01T03:27:37.297Z,81.49
2022-12-01T03:30:10.376Z,81.56
2022-12-01T03:32:46.765Z,81.45
2022-12-01T03:35:18.713Z,81.62
2022-12-01T03:37:50.915Z,81.50
2022-12-01T03:40:25.197Z,81.54
2022-12-01T03:42:57.388Z,81.31
2022-12-01T03:45:29.430Z,81.48
2022-12-01T03:47:56.899Z,81.47
2022-12-01T03:50:28.031Z,81.42
2022-12-01T03:53:06.899Z,81.63
2022-12-01T03:55:38.917Z,81.73
2022-12-01T03:58:10.686Z,81.81
2022-12-01T04:00:39.568Z,81.77
2022-12-01T04:03:07.801Z,81.71
2022-12-01T04:05:36.329Z,81.67
2022-12-01T04:08:04.382Z,81.56
2022-12-01T04:10:33.119Z,81.51
2022-12-01T04:13:01.064Z,81.49
2022-12-01T04:15:29.101Z,81.58
2022-12-01T04:17:56.801Z,81.67
2022-12-01T04:20:24.310Z,81.68
2022-12-01T04:22:51.906Z,81.58
2022-12-01T04:25:19.345Z,81.61
2022-12-01T04:27:46.619Z,81.50
2022-12-01T04:30:15.060Z,81.58
2022-12-01T04:32:44.455Z,81.58
2022-12-01T04:35:14.221Z,81.63
2022-12-01T04:37:41.875Z,81.71
2022-12-01T04:40:11.058Z,81.77
2022-12-01T04:42:38.325Z,81.76
2022-12-01T04:45:08.301Z,81.87
2022-12-01T04:47:35.556Z,81.69
2022-12-01T04:50:02.648Z,81.77
2022-12-01T04:52:34.980Z,81.80
2022-12-01T04:55:03.439Z,81.82
2022-12-01T04:57:30.957Z,81.68
2022-12-01T04:59:58.017Z,81.76
2022-12-01T05:02:25.129Z,81.85
2022-12-01T05:04:52.712Z,81.64
2022-12-01T05:07:20.188Z,81.71
2022-12-01T05:09:47.732Z,81.68
2022-12-01T05:12:17.298Z,81.66
2022-12-01T05:14:44.488Z,81.74
2022-12-01T05:17:11.565Z,81.58
2022-12-01T05:19:56.503Z,81.76
2022-12-01T05:22:56.764Z,81.65
2022-12-01T05:25:12.315Z,81.67
2022-12-01T05:27:39.397Z,81.52
2022-12-01T05:30:08.413Z,81.53
2022-12-01T05:32:35.988Z,81.66
2022-12-01T05:35:03.059Z,81.67
2022-12-01T05:37:34.740Z,81.70
2022-12-01T05:40:01.969Z,81.76
2022-12-01T05:42:29.526Z,81.82
2022-12-01T05:44:56.897Z,81.82
2022-12-01T05:47:24.066Z,81.74
2022-12-01T05:49:52.006Z,81.88
2022-12-01T05:52:19.398Z,81.92
2022-12-01T05:54:46.793Z,81.92
2022-12-01T05:57:13.918Z,81.94
2022-12-01T05:59:41.583Z,81.80
2022-12-01T06:02:08.926Z,81.76
2022-12-01T06:04:36.351Z,81.73
2022-12-01T06:07:03.590Z,81.61
2022-12-01T06:09:30.752Z,81.48
2022-12-01T06:11:57.994Z,81.31
2022-12-01T06:14:25.064Z,81.25
2022-12-01T06:16:52.395Z,81.18
2022-12-01T06:19:19.548Z,81.29
2022-12-01T06:21:46.830Z,81.27
2022-12-01T06:24:14.668Z,81.18
2022-12-01T06:26:42.026Z,80.97
2022-12-01T06:29:10.874Z,80.93
2022-12-01T06:31:38.512Z,81.01
2022-12-01T06:34:05.827Z,80.98
2022-12-01T06:36:33.151Z,81.18
2022-12-01T06:39:00.435Z,80.97
2022-12-01T06:41:27.585Z,81.06
2022-12-01T06:43:54.919Z,80.98
2022-12-01T06:46:22.041Z,80.63
2022-12-01T06:48:51.871Z,80.50
2022-12-01T06:51:19.160Z,80.51
2022-12-01T06:53:46.525Z,80.65
2022-12-01T06:56:14.177Z,80.29
2022-12-01T06:58:41.778Z,80.21
2022-12-01T07:01:13.743Z,80.32
2022-12-01T07:03:41.155Z,80.26
2022-12-01T07:06:09.061Z,80.16
2022-12-01T07:08:36.478Z,80.15
2022-12-01T07:11:05.545Z,80.27
2022-12-01T07:13:34.021Z,80.16
2022-12-01T07:16:01.644Z,80.10
2022-12-01T07:18:28.768Z,80.11
2022-12-01T07:20:59.911Z,80.11
2022-12-01T07:23:27.372Z,80.18
2022-12-01T07:26:02.515Z,80.42
2022-12-01T07:28:30.140Z,80.52
2022-12-01T07:31:01.621Z,80.64
2022-12-01T07:33:28.719Z,80.62
2022-12-01T07:35:57.543Z,80.59
2022-12-01T07:38:24.810Z,80.64
2022-12-01T07:40:52.063Z,80.42
2022-12-01T07:43:19.211Z,80.45
2022-12-01T07:45:46.731Z,80.52
2022-12-01T07:48:13.964Z,80.56
2022-12-01T07:50:41.390Z,80.71
2022-12-01T07:53:08.991Z,80.71
2022-12-01T07:55:36.404Z,80.64
2022-12-01T07:58:04.985Z,80.63
2022-12-01T08:00:32.137Z,80.70
2022-12-01T08:02:59.545Z,80.71
2022-12-01T08:05:26.941Z,80.72
2022-12-01T08:07:56.377Z,80.63
2022-12-01T08:10:23.812Z,80.67
2022-12-01T08:12:51.026Z,80.63
2022-12-01T08:15:18.626Z,80.65
2022-12-01T08:17:46.197Z,80.69
2022-12-01T08:20:18.484Z,80.69
2022-12-01T08:22:49.704Z,80.65
2022-12-01T08:25:17.212Z,80.56
2022-12-01T08:27:44.507Z,80.45
2022-12-01T08:30:14.236Z,80.18
2022-12-01T08:32:41.699Z,80.06
2022-12-01T08:35:10.633Z,80.10
2022-12-01T08:37:37.817Z,79.80
2022-12-01T08:40:16.683Z,79.85
2022-12-01T08:42:43.995Z,79.66
2022-12-01T08:45:12.791Z,79.60
2022-12-01T08:47:40.137Z,79.45
2022-12-01T08:50:09.273Z,79.57
2022-12-01T08:52:36.902Z,79.64
2022-12-01T08:55:04.211Z,79.45
2022-12-01T08:57:33.546Z,79.28
2022-12-01T09:00:00.774Z,79.11
2022-12-01T09:02:28.190Z,79.13
2022-12-01T09:04:55.731Z,79.27
2022-12-01T09:07:26.554Z,79.22
2022-12-01T09:09:54.176Z,79.14
2022-12-01T09:12:21.351Z,79.27
2022-12-01T09:14:49.855Z,79.27
2022-12-01T09:17:18.433Z,79.27
2022-12-01T09:19:46.288Z,79.38
2022-12-01T09:22:14.632Z,79.24
2022-12-01T09:24:41.829Z,79.34
2022-12-01T09:27:10.824Z,79.18
2022-12-01T09:29:39.647Z,79.27
2022-12-01T09:32:06.760Z,79.35
2022-12-01T09:34:33.915Z,79.37
2022-12-01T09:37:01.390Z,79.30
2022-12-01T09:39:29.962Z,79.39
2022-12-01T09:42:08.459Z,79.21
2022-12-01T09:44:44.025Z,79.25
2022-12-01T09:47:19.903Z,79.31
2022-12-01T09:49:55.567Z,79.25
2022-12-01T09:52:24.255Z,79.37
2022-12-01T09:54:51.931Z,79.40
2022-12-01T09:57:27.212Z,79.42
2022-12-01T09:59:56.103Z,79.52
2022-12-01T10:02:38.986Z,79.63
2022-12-01T10:05:14.413Z,79.62
2022-12-01T10:07:45.995Z,79.68
2022-12-01T10:10:17.984Z,79.57
2022-12-01T10:12:48.092Z,79.56
2022-12-01T10:15:28.693Z,79.56
2022-12-01T10:18:06.707Z,79.45
2022-12-01T10:20:41.504Z,79.30
2022-12-01T10:23:24.983Z,79.50
2022-12-01T10:25:58.899Z,79.38
2022-12-01T10:29:10.434Z,79.39
2022-12-01T10:31:43.648Z,79.63
2022-12-01T10:34:16.104Z,79.67
2022-12-01T10:36:43.394Z,79.81
2022-12-01T10:39:19.843Z,79.82
2022-12-01T10:41:49.025Z,79.77
2022-12-01T10:44:18.603Z,79.75
2022-12-01T10:46:49.780Z,79.65
2022-12-01T10:49:18.968Z,79.76
2022-12-01T10:51:57.241Z,79.92
2022-12-01T10:54:32.234Z,79.85
2022-12-01T10:57:00.378Z,79.97
2022-12-01T10:59:36.151Z,80.00
2022-12-01T11:02:06.704Z,79.90
2022-12-01T11:04:45.017Z,79.79
2022-12-01T11:07:20.513Z,79.73
2022-12-01T11:09:50.061Z,79.80
2022-12-01T11:12:20.595Z,79.73
2022-12-01T11:14:51.363Z,79.74
2022-12-01T11:17:27.213Z,79.71
2022-12-01T11:19:54.888Z,79.70
2022-12-01T11:22:26.098Z,79.54
2022-12-01T11:25:17.146Z,79.54
2022-12-01T11:27:51.905Z,79.58
2022-12-01T11:30:25.233Z,79.50
2022-12-01T11:32:57.260Z,79.44
2022-12-01T11:35:27.328Z,79.36
2022-12-01T11:40:53.124Z,79.16
2022-12-01T11:43:28.465Z,79.14
2022-12-01T11:45:57.912Z,79.13
2022-12-01T11:48:29.319Z,78.88
2022-12-01T11:51:15.824Z,79.01
2022-12-01T11:53:44.953Z,79.03
2022-12-01T11:56:32.859Z,79.22
2022-12-01T11:59:03.815Z,79.22
2022-12-01T12:01:41.705Z,79.23
2022-12-01T12:04:24.285Z,79.12
2022-12-01T12:07:00.945Z,79.38
2022-12-01T12:09:45.059Z,79.35
2022-12-01T12:12:28.871Z,79.39
2022-12-01T12:15:06.308Z,79.37
2022-12-01T12:17:59.801Z,79.06
2022-12-01T12:20:46.890Z,78.93
2022-12-01T12:23:30.670Z,79.06
2022-12-01T12:26:07.249Z,79.06
2022-12-01T12:28:52.309Z,79.13
2022-12-01T12:31:28.164Z,79.07
2022-12-01T12:34:08.443Z,79.14
2022-12-01T12:36:45.122Z,78.90
2022-12-01T12:39:18.760Z,78.74
2022-12-01T12:41:49.885Z,78.66
2022-12-01T12:44:55.423Z,78.81
2022-12-01T12:47:36.896Z,78.95
2022-12-01T12:50:18.918Z,79.14
2022-12-01T12:52:49.445Z,79.28
2022-12-01T12:55:22.440Z,79.61
2022-12-01T12:57:54.076Z,79.65
2022-12-01T13:00:25.828Z,79.77
2022-12-01T13:02:57.462Z,79.89
2022-12-01T13:05:31.195Z,79.91
2022-12-01T13:08:03.932Z,79.86
2022-12-01T13:10:38.283Z,79.59
2022-12-01T13:13:19.470Z,79.66
2022-12-01T13:15:49.029Z,79.90
2022-12-01T13:18:26.574Z,79.86
2022-12-01T13:20:55.536Z,79.55
2022-12-01T13:23:25.759Z,79.41
2022-12-01T13:25:57.336Z,79.49
2022-12-01T13:28:28.697Z,79.28
2022-12-01T13:31:05.644Z,79.31
2022-12-01T13:33:35.547Z,79.25
2022-12-01T13:36:38.578Z,78.82
2022-12-01T13:39:01.131Z,78.85
2022-12-01T13:41:33.693Z,79.19
2022-12-01T13:44:08.561Z,79.11
2022-12-01T13:46:54.430Z,78.94
2022-12-01T13:49:46.347Z,78.73
2022-12-01T13:52:49.881Z,78.55
2022-12-01T13:55:34.520Z,77.96
2022-12-01T13:58:26.348Z,77.82
2022-12-01T14:00:54.355Z,77.57
2022-12-01T14:03:57.294Z,77.56
2022-12-01T14:06:29.879Z,77.48
2022-12-01T14:09:02.779Z,77.52
2022-12-01T14:11:32.262Z,77.76
2022-12-01T14:14:04.641Z,77.84
2022-12-01T14:16:49.140Z,77.80
2022-12-01T14:19:31.809Z,77.73
2022-12-01T14:22:00.289Z,77.64
2022-12-01T14:24:30.207Z,77.32
2022-12-01T14:26:57.660Z,77.20
2022-12-01T14:29:43.325Z,77.01
2022-12-01T14:32:27.060Z,76.98
2022-12-01T14:35:00.892Z,77.21
2022-12-01T14:37:35.440Z,77.12
2022-12-01T14:40:08.713Z,76.98
2022-12-01T14:42:57.300Z,76.73
2022-12-01T14:45:27.935Z,76.57
2022-12-01T14:48:02.090Z,76.59
2022-12-01T14:50:36.227Z,76.64
2022-12-01T14:53:10.261Z,76.73
2022-12-01T14:55:41.996Z,76.04
2022-12-01T14:58:15.349Z,75.97
2022-12-01T15:00:56.188Z,76.11
2022-12-01T15:03:28.925Z,76.30
2022-12-01T15:05:59.810Z,76.20
2022-12-01T15:09:04.270Z,76.38
2022-12-01T15:11:26.088Z,76.39
2022-12-01T15:13:55.653Z,76.34
2022-12-01T15:16:25.210Z,76.24
2022-12-01T15:18:53.120Z,76.02
2022-12-01T15:21:23.454Z,76.11
2022-12-01T15:23:59.236Z,76.09
2022-12-01T15:26:27.914Z,76.26
2022-12-01T15:29:07.900Z,75.99
2022-12-01T15:31:36.353Z,75.85
2022-12-01T15:34:04.730Z,75.84
2022-12-01T15:36:32.078Z,76.31
2022-12-01T15:39:06.803Z,76.42
2022-12-01T15:41:35.713Z,75.96
2022-12-01T15:44:03.781Z,75.51
2022-12-01T15:46:34.343Z,75.69
2022-12-01T15:49:17.807Z,75.80
2022-12-01T15:51:45.397Z,76.01
2022-12-01T15:54:21.943Z,76.34
2022-12-01T15:56:51.500Z,75.96
2022-12-01T15:59:28.660Z,75.78
2022-12-01T16:01:56.858Z,76.10
2022-12-01T16:04:27.318Z,76.03
2022-12-01T16:07:00.925Z,75.54
2022-12-01T16:09:31.158Z,75.58
2022-12-01T16:12:24.150Z,75.78
2022-12-01T16:15:19.780Z,75.73
2022-12-01T16:17:49.290Z,75.68
2022-12-01T16:20:27.148Z,75.57
2022-12-01T16:22:59.070Z,75.23
2022-12-01T16:25:33.733Z,74.85
2022-12-01T16:28:01.718Z,75.06
2022-12-01T16:30:35.681Z,74.85
2022-12-01T16:33:17.088Z,74.90
2022-12-01T16:35:44.954Z,74.97
2022-12-01T16:38:20.698Z,74.81
2022-12-01T16:40:48.620Z,74.88
2022-12-01T16:43:18.893Z,75.11
2022-12-01T16:45:50.500Z,74.51
2022-12-01T16:48:19.493Z,74.59
2022-12-01T16:50:47.458Z,74.62
2022-12-01T16:53:15.479Z,74.66
2022-12-01T16:55:45.660Z,74.80
2022-12-01T16:58:13.023Z,74.98
2022-12-01T17:00:40.687Z,74.89
2022-12-01T17:03:08.583Z,74.94
2022-12-01T17:05:36.043Z,74.91
2022-12-01T17:08:03.772Z,74.52
2022-12-01T17:10:31.117Z,74.47
2022-12-01T17:12:58.515Z,74.71
2022-12-01T17:15:25.936Z,74.61
2022-12-01T17:17:53.277Z,74.40
2022-12-01T17:20:20.599Z,74.53
2022-12-01T17:22:47.637Z,74.52
2022-12-01T17:25:14.791Z,74.55
2022-12-01T17:27:43.777Z,75.01
2022-12-01T17:30:15.813Z,75.07
2022-12-01T17:32:43.233Z,74.77
2022-12-01T17:35:12.314Z,74.84
2022-12-01T17:37:39.832Z,74.43
2022-12-01T17:40:11.201Z,74.24
2022-12-01T17:42:38.554Z,74.32
2022-12-01T17:45:07.959Z,74.11
2022-12-01T17:47:35.196Z,74.10
2022-12-01T17:50:02.395Z,74.21
2022-12-01T17:52:30.596Z,74.23
2022-12-01T17:54:58.377Z,74.35
2022-12-01T17:57:25.431Z,74.42
2022-12-01T18:00:12.818Z,74.16
2022-12-01T18:02:40.391Z,73.65
2022-12-01T18:05:09.826Z,73.68
2022-12-01T18:07:37.269Z,73.66
2022-12-01T18:10:05.310Z,73.78
2022-12-01T18:12:32.653Z,73.87
2022-12-01T18:14:59.871Z,74.00
2022-12-01T18:17:27.464Z,74.14
2022-12-01T18:19:54.833Z,74.21
2022-12-01T18:22:22.644Z,74.23
2022-12-01T18:24:50.078Z,74.20
2022-12-01T18:27:17.650Z,74.44
2022-12-01T18:29:45.029Z,74.51
2022-12-01T18:32:12.385Z,73.99
2022-12-01T18:34:39.734Z,73.66
2022-12-01T18:37:06.998Z,73.76
2022-12-01T18:39:34.548Z,73.67
2022-12-01T18:42:01.750Z,73.69
2022-12-01T18:44:28.950Z,74.03
2022-12-01T18:46:57.377Z,74.34
2022-12-01T18:49:24.484Z,74.31
2022-12-01T18:51:52.016Z,74.21
2022-12-01T18:54:19.395Z,74.34
2022-12-01T18:56:47.639Z,74.32
2022-12-01T18:59:17.334Z,74.19
2022-12-01T19:01:46.715Z,74.21
2022-12-01T19:04:14.967Z,74.16
2022-12-01T19:06:43.931Z,74.48
2022-12-01T19:09:13.078Z,74.36
2022-12-01T19:11:41.624Z,74.73
2022-12-01T19:14:09.089Z,74.40
2022-12-01T19:16:36.322Z,74.25
2022-12-01T19:19:05.132Z,74.23
2022-12-01T19:21:32.589Z,74.26
2022-12-01T19:24:00.098Z,74.37
2022-12-01T19:26:27.299Z,74.28
2022-12-01T19:28:54.865Z,74.44
2022-12-01T19:31:25.544Z,74.23
2022-12-01T19:33:53.248Z,74.23
2022-12-01T19:36:24.035Z,74.28
2022-12-01T19:38:51.657Z,74.44
2022-12-01T19:41:20.934Z,74.32
2022-12-01T19:43:48.572Z,74.37
2022-12-01T19:46:17.540Z,74.53
2022-12-01T19:48:44.934Z,74.34
2022-12-01T19:51:19.624Z,74.38
2022-12-01T19:53:47.381Z,74.32
2022-12-01T19:56:15.218Z,74.29
2022-12-01T19:58:42.889Z,73.92
2022-12-01T20:01:12.647Z,74.09
2022-12-01T20:03:43.020Z,74.16
2022-12-01T20:06:15.180Z,74.15
2022-12-01T20:08:42.780Z,74.25
2022-12-01T20:11:10.815Z,74.35
2022-12-01T20:13:39.707Z,74.57
2022-12-01T20:16:09.598Z,74.63
2022-12-01T20:18:37.384Z,74.36
2022-12-01T20:21:11.141Z,74.27
2022-12-01T20:23:38.862Z,74.44
2022-12-01T20:26:08.436Z,74.27
2022-12-01T20:28:36.679Z,74.44
2022-12-01T20:31:04.404Z,74.37
2022-12-01T20:33:33.172Z,74.28
2022-12-01T20:36:01.061Z,74.29
2022-12-01T20:38:28.318Z,74.10
2022-12-01T20:40:55.810Z,74.22
2022-12-01T20:43:23.125Z,74.23
2022-12-01T20:45:50.461Z,74.28
2022-12-01T20:48:18.575Z,74.38
2022-12-01T20:50:45.805Z,74.63
2022-12-01T20:53:13.422Z,74.23
2022-12-01T20:55:41.127Z,74.16
2022-12-01T20:58:10.022Z,73.77
2022-12-01T21:00:38.267Z,73.97
2022-12-01T21:03:05.861Z,73.76
2022-12-01T21:05:33.931Z,74.31
2022-12-01T21:08:01.125Z,74.32
2022-12-01T21:10:28.911Z,74.43
2022-12-01T21:13:17.045Z,74.62
2022-12-01T21:15:51.208Z,74.46
2022-12-01T21:18:26.800Z,74.83
2022-12-01T21:20:58.097Z,74.71
2022-12-01T21:23:26.794Z,74.61
2022-12-01T21:25:53.996Z,74.69
2022-12-01T21:28:24.669Z,74.69
2022-12-01T21:30:56.879Z,74.75
2022-12-01T21:33:32.590Z,74.73
2022-12-01T21:36:00.939Z,74.94
2022-12-01T21:38:28.949Z,75.07
2022-12-01T21:40:56.248Z,75.09
2022-12-01T21:43:25.518Z,75.18
2022-12-01T21:45:57.500Z,75.35
2022-12-01T21:48:25.734Z,75.19
2022-12-01T21:50:59.433Z,75.48
2022-12-01T21:53:34.676Z,75.46
2022-12-01T21:56:02.154Z,75.31
2022-12-01T21:58:34.501Z,75.42
2022-12-01T22:01:02.659Z,75.81
2022-12-01T22:03:40.425Z,75.49
2022-12-01T22:06:29.685Z,75.46
2022-12-01T22:09:01.100Z,75.28
2022-12-01T22:11:29.648Z,75.06
2022-12-01T22:14:06.157Z,75.37
2022-12-01T22:16:32.381Z,75.19
2022-12-01T22:19:00.915Z,75.08
2022-12-01T22:21:41.282Z,75.09
2022-12-01T22:24:40.745Z,75.30
2022-12-01T22:27:19.037Z,75.05
2022-12-01T22:29:48.167Z,75.24
2022-12-01T22:32:40.626Z,75.10
2022-12-01T22:35:26.921Z,75.11
2022-12-01T22:37:55.870Z,75.22
2022-12-01T22:40:37.701Z,75.15
2022-12-01T22:43:23.863Z,75.49
2022-12-01T22:45:53.419Z,75.29
2022-12-01T22:48:28.590Z,74.89
2022-12-01T22:50:55.757Z,74.90
2022-12-01T22:53:30.689Z,75.08
2022-12-01T22:56:01.267Z,75.20
2022-12-01T22:58:32.697Z,75.11
2022-12-01T23:01:03.918Z,74.86
2022-12-01T23:03:31.374Z,74.73
2022-12-01T23:06:00.762Z,74.40
2022-12-01T23:08:27.864Z,74.41
2022-12-01T23:10:55.291Z,74.80
2022-12-01T23:13:25.572Z,74.70
2022-12-01T23:15:54.241Z,75.11
2022-12-01T23:18:24.563Z,75.02
2022-12-01T23:20:53.301Z,74.88
2022-12-01T23:23:22.189Z,74.92
2022-12-01T23:25:50.579Z,75.10
2022-12-01T23:28:18.246Z,75.36
2022-12-01T23:30:47.492Z,75.27
2022-12-01T23:33:18.952Z,75.27
2022-12-01T23:35:50.131Z,74.94
2022-12-01T23:38:23.643Z,75.02
2022-12-01T23:40:53.113Z,75.09
2022-12-01T23:43:23.466Z,74.63
2022-12-01T23:45:52.661Z,74.77
2022-12-01T23:48:24.064Z,74.62
2022-12-01T23:50:54.079Z,74.63
2022-12-01T23:53:29.187Z,74.71
2022-12-01T23:55:57.132Z,74.33
2022-12-01T23:58:24.588Z,74.68
